sensor_id;sensor_type;location;lat;lon;timestamp;temperature;humidity
16402;DHT22;8310;44.626;11.176;2022-12-18T00:01:16;9.80;83.30
16402;DHT22;8310;44.626;11.176;2022-12-18T00:03:43;9.80;83.30
16402;DHT22;8310;44.626;11.176;2022-12-18T00:06:12;9.80;83.20
16402;DHT22;8310;44.626;11.176;2022-12-18T00:08:42;9.70;83.10
16402;DHT22;8310;44.626;11.176;2022-12-18T00:11:12;9.70;83.20
16402;DHT22;8310;44.626;11.176;2022-12-18T00:13:40;9.70;83.20
16402;DHT22;8310;44.626;11.176;2022-12-18T00:16:16;9.70;83.10
16402;DHT22;8310;44.626;11.176;2022-12-18T00:18:46;9.70;83.30
16402;DHT22;8310;44.626;11.176;2022-12-18T00:21:14;9.70;83.10
16402;DHT22;8310;44.626;11.176;2022-12-18T00:23:44;9.70;83.10
16402;DHT22;8310;44.626;11.176;2022-12-18T00:26:14;9.60;83.10
16402;DHT22;8310;44.626;11.176;2022-12-18T00:28:42;9.60;83.10
16402;DHT22;8310;44.626;11.176;2022-12-18T00:31:11;9.60;83.00
16402;DHT22;8310;44.626;11.176;2022-12-18T00:33:38;9.60;83.10
16402;DHT22;8310;44.626;11.176;2022-12-18T00:36:09;9.50;83.00
16402;DHT22;8310;44.626;11.176;2022-12-18T00:38:38;9.50;83.00
16402;DHT22;8310;44.626;11.176;2022-12-18T00:41:09;9.50;83.00
16402;DHT22;8310;44.626;11.176;2022-12-18T00:43:37;9.40;82.90
16402;DHT22;8310;44.626;11.176;2022-12-18T00:46:04;9.40;82.90
16402;DHT22;8310;44.626;11.176;2022-12-18T00:48:32;9.40;82.90
16402;DHT22;8310;44.626;11.176;2022-12-18T00:51:05;9.40;82.90
16402;DHT22;8310;44.626;11.176;2022-12-18T00:53:34;9.40;82.90
16402;DHT22;8310;44.626;11.176;2022-12-18T00:56:02;9.30;82.80
16402;DHT22;8310;44.626;11.176;2022-12-18T00:58:31;9.30;82.80
16402;DHT22;8310;44.626;11.176;2022-12-18T01:00:59;9.30;82.80
16402;DHT22;8310;44.626;11.176;2022-12-18T01:03:26;9.30;82.80
16402;DHT22;8310;44.626;11.176;2022-12-18T01:05:54;9.20;82.60
16402;DHT22;8310;44.626;11.176;2022-12-18T01:08:22;9.20;82.60
16402;DHT22;8310;44.626;11.176;2022-12-18T01:10:49;9.20;82.60
16402;DHT22;8310;44.626;11.176;2022-12-18T01:13:17;9.10;82.50
16402;DHT22;8310;44.626;11.176;2022-12-18T01:15:49;9.10;82.50
16402;DHT22;8310;44.626;11.176;2022-12-18T01:18:18;9.00;82.50
16402;DHT22;8310;44.626;11.176;2022-12-18T01:20:46;9.00;82.40
16402;DHT22;8310;44.626;11.176;2022-12-18T01:23:14;9.00;82.50
16402;DHT22;8310;44.626;11.176;2022-12-18T01:25:42;8.90;82.50
16402;DHT22;8310;44.626;11.176;2022-12-18T01:28:10;8.90;82.50
16402;DHT22;8310;44.626;11.176;2022-12-18T01:30:38;8.90;82.50
16402;DHT22;8310;44.626;11.176;2022-12-18T01:33:06;8.90;82.50
16402;DHT22;8310;44.626;11.176;2022-12-18T01:35:40;8.90;82.60
16402;DHT22;8310;44.626;11.176;2022-12-18T01:38:09;8.80;82.50
16402;DHT22;8310;44.626;11.176;2022-12-18T01:40:37;8.80;82.50
16402;DHT22;8310;44.626;11.176;2022-12-18T01:43:04;8.80;82.60
16402;DHT22;8310;44.626;11.176;2022-12-18T01:45:35;8.80;82.40
16402;DHT22;8310;44.626;11.176;2022-12-18T01:48:07;8.70;82.30
16402;DHT22;8310;44.626;11.176;2022-12-18T01:50:37;8.70;82.30
16402;DHT22;8310;44.626;11.176;2022-12-18T01:53:11;8.70;82.40
16402;DHT22;8310;44.626;11.176;2022-12-18T01:55:45;8.60;82.40
16402;DHT22;8310;44.626;11.176;2022-12-18T01:58:13;8.60;82.50
16402;DHT22;8310;44.626;11.176;2022-12-18T02:00:41;8.60;82.40
16402;DHT22;8310;44.626;11.176;2022-12-18T02:03:11;8.60;82.50
16402;DHT22;8310;44.626;11.176;2022-12-18T02:05:45;8.60;82.50
16402;DHT22;8310;44.626;11.176;2022-12-18T02:08:16;8.50;82.40
16402;DHT22;8310;44.626;11.176;2022-12-18T02:10:53;8.50;82.50
16402;DHT22;8310;44.626;11.176;2022-12-18T02:13:27;8.50;82.50
16402;DHT22;8310;44.626;11.176;2022-12-18T02:16:01;8.50;82.50
16402;DHT22;8310;44.626;11.176;2022-12-18T02:18:35;8.40;82.50
16402;DHT22;8310;44.626;11.176;2022-12-18T02:21:11;8.40;82.50
16402;DHT22;8310;44.626;11.176;2022-12-18T02:23:47;8.40;82.50
16402;DHT22;8310;44.626;11.176;2022-12-18T02:26:22;8.40;82.50
16402;DHT22;8310;44.626;11.176;2022-12-18T02:28:57;8.40;82.40
16402;DHT22;8310;44.626;11.176;2022-12-18T02:31:30;8.30;82.30
16402;DHT22;8310;44.626;11.176;2022-12-18T02:34:01;8.30;82.30
16402;DHT22;8310;44.626;11.176;2022-12-18T02:36:31;8.30;82.40
16402;DHT22;8310;44.626;11.176;2022-12-18T02:39:00;8.30;82.40
16402;DHT22;8310;44.626;11.176;2022-12-18T02:41:31;8.30;82.40
16402;DHT22;8310;44.626;11.176;2022-12-18T02:44:01;8.30;82.50
16402;DHT22;8310;44.626;11.176;2022-12-18T02:46:35;8.30;83.30
16402;DHT22;8310;44.626;11.176;2022-12-18T02:49:12;8.20;82.50
16402;DHT22;8310;44.626;11.176;2022-12-18T02:51:47;8.20;82.50
16402;DHT22;8310;44.626;11.176;2022-12-18T02:54:24;8.20;82.50
16402;DHT22;8310;44.626;11.176;2022-12-18T02:56:58;8.20;82.60
16402;DHT22;8310;44.626;11.176;2022-12-18T02:59:38;8.10;82.50
16402;DHT22;8310;44.626;11.176;2022-12-18T03:02:17;8.10;82.50
16402;DHT22;8310;44.626;11.176;2022-12-18T03:04:50;8.10;82.50
16402;DHT22;8310;44.626;11.176;2022-12-18T03:07:21;8.00;82.30
16402;DHT22;8310;44.626;11.176;2022-12-18T03:09:51;8.00;82.40
16402;DHT22;8310;44.626;11.176;2022-12-18T03:12:27;8.00;82.40
16402;DHT22;8310;44.626;11.176;2022-12-18T03:15:00;8.00;82.50
16402;DHT22;8310;44.626;11.176;2022-12-18T03:17:31;7.90;82.50
16402;DHT22;8310;44.626;11.176;2022-12-18T03:20:05;8.00;82.60
16402;DHT22;8310;44.626;11.176;2022-12-18T03:22:34;8.00;82.60
16402;DHT22;8310;44.626;11.176;2022-12-18T03:25:05;8.00;82.60
16402;DHT22;8310;44.626;11.176;2022-12-18T03:27:37;8.00;82.60
16402;DHT22;8310;44.626;11.176;2022-12-18T03:30:08;8.00;82.60
16402;DHT22;8310;44.626;11.176;2022-12-18T03:32:41;8.00;82.70
16402;DHT22;8310;44.626;11.176;2022-12-18T03:35:12;8.00;82.70
16402;DHT22;8310;44.626;11.176;2022-12-18T03:37:40;8.00;82.70
16402;DHT22;8310;44.626;11.176;2022-12-18T03:40:08;8.10;82.80
16402;DHT22;8310;44.626;11.176;2022-12-18T03:42:44;8.10;82.80
16402;DHT22;8310;44.626;11.176;2022-12-18T03:45:19;8.10;82.80
16402;DHT22;8310;44.626;11.176;2022-12-18T03:47:58;8.10;82.80
16402;DHT22;8310;44.626;11.176;2022-12-18T03:50:34;8.10;82.80
16402;DHT22;8310;44.626;11.176;2022-12-18T03:53:15;8.10;82.80
16402;DHT22;8310;44.626;11.176;2022-12-18T03:55:45;8.10;82.80
16402;DHT22;8310;44.626;11.176;2022-12-18T03:58:18;8.10;82.80
16402;DHT22;8310;44.626;11.176;2022-12-18T04:00:48;8.10;82.80
16402;DHT22;8310;44.626;11.176;2022-12-18T04:03:17;8.10;82.80
16402;DHT22;8310;44.626;11.176;2022-12-18T04:05:47;8.10;82.90
16402;DHT22;8310;44.626;11.176;2022-12-18T04:08:16;8.10;82.80
16402;DHT22;8310;44.626;11.176;2022-12-18T04:10:44;8.10;82.80
16402;DHT22;8310;44.626;11.176;2022-12-18T04:13:12;8.10;82.80
16402;DHT22;8310;44.626;11.176;2022-12-18T04:15:41;8.10;82.80
16402;DHT22;8310;44.626;11.176;2022-12-18T04:18:09;8.10;82.70
16402;DHT22;8310;44.626;11.176;2022-12-18T04:20:41;8.10;82.80
16402;DHT22;8310;44.626;11.176;2022-12-18T04:23:09;8.10;82.80
16402;DHT22;8310;44.626;11.176;2022-12-18T04:25:37;8.10;82.90
16402;DHT22;8310;44.626;11.176;2022-12-18T04:28:04;8.10;82.80
16402;DHT22;8310;44.626;11.176;2022-12-18T04:30:32;8.10;82.80
16402;DHT22;8310;44.626;11.176;2022-12-18T04:33:08;8.10;82.80
16402;DHT22;8310;44.626;11.176;2022-12-18T04:35:36;8.10;82.80
16402;DHT22;8310;44.626;11.176;2022-12-18T04:38:03;8.10;82.80
16402;DHT22;8310;44.626;11.176;2022-12-18T04:40:30;8.10;82.80
16402;DHT22;8310;44.626;11.176;2022-12-18T04:42:58;8.10;82.80
16402;DHT22;8310;44.626;11.176;2022-12-18T04:45:26;8.10;82.80
16402;DHT22;8310;44.626;11.176;2022-12-18T04:47:54;8.10;82.80
16402;DHT22;8310;44.626;11.176;2022-12-18T04:50:23;8.10;82.80
16402;DHT22;8310;44.626;11.176;2022-12-18T04:52:51;8.10;82.80
16402;DHT22;8310;44.626;11.176;2022-12-18T04:55:19;8.10;82.90
16402;DHT22;8310;44.626;11.176;2022-12-18T04:57:47;8.10;82.90
16402;DHT22;8310;44.626;11.176;2022-12-18T05:00:15;8.10;82.90
16402;DHT22;8310;44.626;11.176;2022-12-18T05:02:43;8.10;82.80
16402;DHT22;8310;44.626;11.176;2022-12-18T05:05:11;8.10;82.90
16402;DHT22;8310;44.626;11.176;2022-12-18T05:07:40;8.10;82.70
16402;DHT22;8310;44.626;11.176;2022-12-18T05:10:08;8.00;82.60
16402;DHT22;8310;44.626;11.176;2022-12-18T05:12:36;8.00;82.70
16402;DHT22;8310;44.626;11.176;2022-12-18T05:15:23;8.00;82.60
16402;DHT22;8310;44.626;11.176;2022-12-18T05:17:51;8.00;82.60
16402;DHT22;8310;44.626;11.176;2022-12-18T05:20:19;7.90;82.50
16402;DHT22;8310;44.626;11.176;2022-12-18T05:22:48;7.90;82.60
16402;DHT22;8310;44.626;11.176;2022-12-18T05:25:16;7.90;82.70
16402;DHT22;8310;44.626;11.176;2022-12-18T05:27:44;7.90;82.70
16402;DHT22;8310;44.626;11.176;2022-12-18T05:30:12;8.00;82.90
16402;DHT22;8310;44.626;11.176;2022-12-18T05:32:41;8.00;82.90
16402;DHT22;8310;44.626;11.176;2022-12-18T05:35:10;8.00;82.90
16402;DHT22;8310;44.626;11.176;2022-12-18T05:37:37;8.00;82.90
16402;DHT22;8310;44.626;11.176;2022-12-18T05:40:08;8.00;82.90
16402;DHT22;8310;44.626;11.176;2022-12-18T05:42:36;8.00;82.90
16402;DHT22;8310;44.626;11.176;2022-12-18T05:45:05;8.00;82.90
16402;DHT22;8310;44.626;11.176;2022-12-18T05:47:33;8.10;83.00
16402;DHT22;8310;44.626;11.176;2022-12-18T05:50:01;8.10;83.00
16402;DHT22;8310;44.626;11.176;2022-12-18T05:52:29;8.10;83.00
16402;DHT22;8310;44.626;11.176;2022-12-18T05:54:57;8.10;83.00
16402;DHT22;8310;44.626;11.176;2022-12-18T05:57:27;8.10;82.90
16402;DHT22;8310;44.626;11.176;2022-12-18T05:59:54;8.10;82.80
16402;DHT22;8310;44.626;11.176;2022-12-18T06:02:23;8.00;82.70
16402;DHT22;8310;44.626;11.176;2022-12-18T06:04:51;8.00;82.70
16402;DHT22;8310;44.626;11.176;2022-12-18T06:07:19;8.00;82.80
16402;DHT22;8310;44.626;11.176;2022-12-18T06:09:47;8.00;82.80
16402;DHT22;8310;44.626;11.176;2022-12-18T06:12:14;8.00;82.80
16402;DHT22;8310;44.626;11.176;2022-12-18T06:14:43;8.00;82.90
16402;DHT22;8310;44.626;11.176;2022-12-18T06:17:11;8.00;82.70
16402;DHT22;8310;44.626;11.176;2022-12-18T06:19:42;8.00;82.80
16402;DHT22;8310;44.626;11.176;2022-12-18T06:22:09;8.00;82.80
16402;DHT22;8310;44.626;11.176;2022-12-18T06:24:37;7.90;82.70
16402;DHT22;8310;44.626;11.176;2022-12-18T06:27:05;7.90;82.80
16402;DHT22;8310;44.626;11.176;2022-12-18T06:29:33;7.90;82.80
16402;DHT22;8310;44.626;11.176;2022-12-18T06:32:03;7.90;82.80
16402;DHT22;8310;44.626;11.176;2022-12-18T06:34:31;7.90;82.70
16402;DHT22;8310;44.626;11.176;2022-12-18T06:36:59;7.90;82.80
16402;DHT22;8310;44.626;11.176;2022-12-18T06:39:27;7.90;82.80
16402;DHT22;8310;44.626;11.176;2022-12-18T06:41:55;7.90;83.50
16402;DHT22;8310;44.626;11.176;2022-12-18T06:44:23;7.90;82.80
16402;DHT22;8310;44.626;11.176;2022-12-18T06:46:51;7.90;82.80
16402;DHT22;8310;44.626;11.176;2022-12-18T06:49:21;8.00;82.90
16402;DHT22;8310;44.626;11.176;2022-12-18T06:51:49;8.00;82.80
16402;DHT22;8310;44.626;11.176;2022-12-18T06:54:16;8.00;82.90
16402;DHT22;8310;44.626;11.176;2022-12-18T06:56:45;8.00;82.70
16402;DHT22;8310;44.626;11.176;2022-12-18T06:59:13;7.90;82.60
16402;DHT22;8310;44.626;11.176;2022-12-18T07:01:41;7.90;82.70
16402;DHT22;8310;44.626;11.176;2022-12-18T07:04:08;7.90;82.80
16402;DHT22;8310;44.626;11.176;2022-12-18T07:06:38;7.90;83.20
16402;DHT22;8310;44.626;11.176;2022-12-18T07:09:06;8.00;83.80
16402;DHT22;8310;44.626;11.176;2022-12-18T07:11:34;8.20;84.60
16402;DHT22;8310;44.626;11.176;2022-12-18T07:14:05;8.40;85.30
16402;DHT22;8310;44.626;11.176;2022-12-18T07:16:33;8.60;85.70
16402;DHT22;8310;44.626;11.176;2022-12-18T07:19:00;8.80;86.10
16402;DHT22;8310;44.626;11.176;2022-12-18T07:21:28;8.90;85.70
16402;DHT22;8310;44.626;11.176;2022-12-18T07:23:58;9.00;85.10
16402;DHT22;8310;44.626;11.176;2022-12-18T07:26:25;8.90;84.40
16402;DHT22;8310;44.626;11.176;2022-12-18T07:28:55;8.90;84.10
16402;DHT22;8310;44.626;11.176;2022-12-18T07:31:24;8.80;83.90
16402;DHT22;8310;44.626;11.176;2022-12-18T07:33:52;8.70;83.80
16402;DHT22;8310;44.626;11.176;2022-12-18T07:36:20;8.70;83.70
16402;DHT22;8310;44.626;11.176;2022-12-18T07:38:47;8.70;83.80
16402;DHT22;8310;44.626;11.176;2022-12-18T07:41:20;8.70;85.30
16402;DHT22;8310;44.626;11.176;2022-12-18T07:43:48;9.00;86.10
16402;DHT22;8310;44.626;11.176;2022-12-18T07:46:17;9.10;85.50
16402;DHT22;8310;44.626;11.176;2022-12-18T07:48:45;9.20;85.00
16402;DHT22;8310;44.626;11.176;2022-12-18T07:51:13;9.20;84.80
16402;DHT22;8310;44.626;11.176;2022-12-18T07:53:41;9.20;84.70
16402;DHT22;8310;44.626;11.176;2022-12-18T07:56:11;9.20;84.90
16402;DHT22;8310;44.626;11.176;2022-12-18T07:58:40;9.20;85.00
16402;DHT22;8310;44.626;11.176;2022-12-18T08:01:10;9.20;84.90
16402;DHT22;8310;44.626;11.176;2022-12-18T08:03:39;9.20;84.80
16402;DHT22;8310;44.626;11.176;2022-12-18T08:06:09;9.20;84.70
16402;DHT22;8310;44.626;11.176;2022-12-18T08:08:37;9.20;85.00
16402;DHT22;8310;44.626;11.176;2022-12-18T08:11:05;9.40;85.80
16402;DHT22;8310;44.626;11.176;2022-12-18T08:13:32;9.50;85.90
16402;DHT22;8310;44.626;11.176;2022-12-18T08:18:37;9.70;85.90
16402;DHT22;8310;44.626;11.176;2022-12-18T08:21:09;9.80;85.90
16402;DHT22;8310;44.626;11.176;2022-12-18T08:23:37;9.80;85.80
16402;DHT22;8310;44.626;11.176;2022-12-18T08:26:05;9.90;85.60
16402;DHT22;8310;44.626;11.176;2022-12-18T08:28:33;9.90;85.50
16402;DHT22;8310;44.626;11.176;2022-12-18T08:31:01;10.00;86.50
16402;DHT22;8310;44.626;11.176;2022-12-18T08:33:28;10.30;89.30
16402;DHT22;8310;44.626;11.176;2022-12-18T08:35:58;10.90;90.10
16402;DHT22;8310;44.626;11.176;2022-12-18T08:38:26;11.20;89.20
16402;DHT22;8310;44.626;11.176;2022-12-18T08:40:58;11.20;87.80
16402;DHT22;8310;44.626;11.176;2022-12-18T08:43:26;11.20;87.00
16402;DHT22;8310;44.626;11.176;2022-12-18T08:46:11;11.10;87.70
16402;DHT22;8310;44.626;11.176;2022-12-18T08:48:38;11.40;89.30
16402;DHT22;8310;44.626;11.176;2022-12-18T08:51:12;11.50;88.40
16402;DHT22;8310;44.626;11.176;2022-12-18T08:53:40;11.50;87.30
16402;DHT22;8310;44.626;11.176;2022-12-18T08:56:07;11.40;87.40
16402;DHT22;8310;44.626;11.176;2022-12-18T08:58:35;11.40;87.50
16402;DHT22;8310;44.626;11.176;2022-12-18T09:01:03;11.40;86.80
16402;DHT22;8310;44.626;11.176;2022-12-18T09:03:32;11.40;86.50
16402;DHT22;8310;44.626;11.176;2022-12-18T09:06:00;11.30;86.50
16402;DHT22;8310;44.626;11.176;2022-12-18T09:08:30;11.30;86.00
16402;DHT22;8310;44.626;11.176;2022-12-18T09:10:58;11.20;85.70
16402;DHT22;8310;44.626;11.176;2022-12-18T09:13:25;11.20;85.60
16402;DHT22;8310;44.626;11.176;2022-12-18T09:15:54;11.10;85.90
16402;DHT22;8310;44.626;11.176;2022-12-18T09:18:23;11.20;86.20
16402;DHT22;8310;44.626;11.176;2022-12-18T09:20:51;11.30;86.30
16402;DHT22;8310;44.626;11.176;2022-12-18T09:23:18;11.50;86.30
16402;DHT22;8310;44.626;11.176;2022-12-18T09:25:47;11.60;86.30
16402;DHT22;8310;44.626;11.176;2022-12-18T09:28:17;11.70;86.30
16402;DHT22;8310;44.626;11.176;2022-12-18T09:30:47;11.80;86.20
16402;DHT22;8310;44.626;11.176;2022-12-18T09:33:16;11.90;86.10
16402;DHT22;8310;44.626;11.176;2022-12-18T09:35:44;12.00;86.20
16402;DHT22;8310;44.626;11.176;2022-12-18T09:38:15;12.10;86.10
16402;DHT22;8310;44.626;11.176;2022-12-18T09:40:46;12.20;86.00
16402;DHT22;8310;44.626;11.176;2022-12-18T09:43:18;12.30;85.80
16402;DHT22;8310;44.626;11.176;2022-12-18T09:45:51;12.30;85.90
16402;DHT22;8310;44.626;11.176;2022-12-18T09:48:23;12.40;86.10
16402;DHT22;8310;44.626;11.176;2022-12-18T09:50:57;12.50;86.30
16402;DHT22;8310;44.626;11.176;2022-12-18T09:53:30;12.60;86.20
16402;DHT22;8310;44.626;11.176;2022-12-18T09:56:00;12.70;85.90
16402;DHT22;8310;44.626;11.176;2022-12-18T09:58:34;12.70;85.60
16402;DHT22;8310;44.626;11.176;2022-12-18T10:01:10;12.80;85.40
16402;DHT22;8310;44.626;11.176;2022-12-18T10:03:39;12.80;85.40
16402;DHT22;8310;44.626;11.176;2022-12-18T10:06:13;12.90;85.60
16402;DHT22;8310;44.626;11.176;2022-12-18T10:08:45;13.00;85.70
16402;DHT22;8310;44.626;11.176;2022-12-18T10:11:25;13.00;85.60
16402;DHT22;8310;44.626;11.176;2022-12-18T10:13:59;13.10;85.50
16402;DHT22;8310;44.626;11.176;2022-12-18T10:16:35;13.10;85.30
16402;DHT22;8310;44.626;11.176;2022-12-18T10:19:15;13.20;85.30
16402;DHT22;8310;44.626;11.176;2022-12-18T10:21:49;13.20;85.50
16402;DHT22;8310;44.626;11.176;2022-12-18T10:24:23;13.30;85.70
16402;DHT22;8310;44.626;11.176;2022-12-18T10:26:56;13.30;85.60
16402;DHT22;8310;44.626;11.176;2022-12-18T10:29:28;13.40;85.70
16402;DHT22;8310;44.626;11.176;2022-12-18T10:31:56;13.50;85.80
16402;DHT22;8310;44.626;11.176;2022-12-18T10:34:24;13.50;85.70
16402;DHT22;8310;44.626;11.176;2022-12-18T10:36:51;13.60;85.70
16402;DHT22;8310;44.626;11.176;2022-12-18T10:39:21;13.70;85.80
16402;DHT22;8310;44.626;11.176;2022-12-18T10:41:48;13.70;85.70
16402;DHT22;8310;44.626;11.176;2022-12-18T10:44:18;13.80;85.70
16402;DHT22;8310;44.626;11.176;2022-12-18T10:46:49;13.80;85.60
16402;DHT22;8310;44.626;11.176;2022-12-18T10:49:23;13.80;86.30
16402;DHT22;8310;44.626;11.176;2022-12-18T10:52:05;13.80;85.30
16402;DHT22;8310;44.626;11.176;2022-12-18T10:54:33;13.80;85.20
16402;DHT22;8310;44.626;11.176;2022-12-18T10:57:15;13.80;85.00
16402;DHT22;8310;44.626;11.176;2022-12-18T10:59:51;13.70;85.10
16402;DHT22;8310;44.626;11.176;2022-12-18T11:02:28;13.70;85.20
16402;DHT22;8310;44.626;11.176;2022-12-18T11:04:58;13.70;85.50
16402;DHT22;8310;44.626;11.176;2022-12-18T11:07:26;13.70;85.80
16402;DHT22;8310;44.626;11.176;2022-12-18T11:10:16;13.90;86.00
16402;DHT22;8310;44.626;11.176;2022-12-18T11:12:45;14.10;86.30
16402;DHT22;8310;44.626;11.176;2022-12-18T11:15:18;14.30;86.30
16402;DHT22;8310;44.626;11.176;2022-12-18T11:17:50;14.50;86.10
16402;DHT22;8310;44.626;11.176;2022-12-18T11:20:30;14.60;86.00
16402;DHT22;8310;44.626;11.176;2022-12-18T11:23:00;14.70;86.00
16402;DHT22;8310;44.626;11.176;2022-12-18T11:25:29;14.80;86.00
16402;DHT22;8310;44.626;11.176;2022-12-18T11:27:59;14.80;85.50
16402;DHT22;8310;44.626;11.176;2022-12-18T11:30:29;14.90;85.50
16402;DHT22;8310;44.626;11.176;2022-12-18T11:33:03;14.90;86.40
16402;DHT22;8310;44.626;11.176;2022-12-18T11:35:37;14.90;85.50
16402;DHT22;8310;44.626;11.176;2022-12-18T11:38:22;15.00;85.40
16402;DHT22;8310;44.626;11.176;2022-12-18T11:40:55;15.00;85.10
16402;DHT22;8310;44.626;11.176;2022-12-18T11:43:27;15.10;84.90
16402;DHT22;8310;44.626;11.176;2022-12-18T11:46:00;15.10;84.90
16402;DHT22;8310;44.626;11.176;2022-12-18T11:48:33;15.10;85.10
16402;DHT22;8310;44.626;11.176;2022-12-18T11:51:04;15.20;85.20
16402;DHT22;8310;44.626;11.176;2022-12-18T11:53:33;15.30;85.40
16402;DHT22;8310;44.626;11.176;2022-12-18T11:56:29;15.30;85.30
16402;DHT22;8310;44.626;11.176;2022-12-18T11:59:06;15.40;85.30
16402;DHT22;8310;44.626;11.176;2022-12-18T12:01:41;15.50;85.20
16402;DHT22;8310;44.626;11.176;2022-12-18T12:04:36;15.60;85.10
16402;DHT22;8310;44.626;11.176;2022-12-18T12:07:15;15.60;84.70
16402;DHT22;8310;44.626;11.176;2022-12-18T12:09:50;15.60;84.60
16402;DHT22;8310;44.626;11.176;2022-12-18T12:12:32;15.60;84.80
16402;DHT22;8310;44.626;11.176;2022-12-18T12:15:19;15.70;85.40
16402;DHT22;8310;44.626;11.176;2022-12-18T12:17:53;16.00;85.60
16402;DHT22;8310;44.626;11.176;2022-12-18T12:20:28;16.10;85.70
16402;DHT22;8310;44.626;11.176;2022-12-18T12:23:05;16.30;85.80
16402;DHT22;8310;44.626;11.176;2022-12-18T12:25:39;16.50;85.90
16402;DHT22;8310;44.626;11.176;2022-12-18T12:28:18;16.70;85.60
16402;DHT22;8310;44.626;11.176;2022-12-18T12:30:55;16.80;85.70
16402;DHT22;8310;44.626;11.176;2022-12-18T12:33:36;17.00;85.90
16402;DHT22;8310;44.626;11.176;2022-12-18T12:36:13;17.10;86.20
16402;DHT22;8310;44.626;11.176;2022-12-18T12:38:47;17.30;86.50
16402;DHT22;8310;44.626;11.176;2022-12-18T12:41:18;17.50;86.70
16402;DHT22;8310;44.626;11.176;2022-12-18T12:44:07;17.70;86.90
16402;DHT22;8310;44.626;11.176;2022-12-18T12:46:37;18.00;87.70
16402;DHT22;8310;44.626;11.176;2022-12-18T12:49:12;18.20;87.40
16402;DHT22;8310;44.626;11.176;2022-12-18T12:51:45;18.30;87.40
16402;DHT22;8310;44.626;11.176;2022-12-18T12:54:18;18.50;87.30
16402;DHT22;8310;44.626;11.176;2022-12-18T12:56:52;18.50;86.50
16402;DHT22;8310;44.626;11.176;2022-12-18T12:59:34;18.50;86.50
16402;DHT22;8310;44.626;11.176;2022-12-18T13:02:12;18.50;86.50
16402;DHT22;8310;44.626;11.176;2022-12-18T13:04:48;18.60;86.30
16402;DHT22;8310;44.626;11.176;2022-12-18T13:07:23;18.60;86.00
16402;DHT22;8310;44.626;11.176;2022-12-18T13:10:22;18.60;86.00
16402;DHT22;8310;44.626;11.176;2022-12-18T13:12:55;18.70;86.10
16402;DHT22;8310;44.626;11.176;2022-12-18T13:15:24;18.70;86.20
16402;DHT22;8310;44.626;11.176;2022-12-18T13:18:19;18.80;85.90
16402;DHT22;8310;44.626;11.176;2022-12-18T13:20:48;18.90;85.50
16402;DHT22;8310;44.626;11.176;2022-12-18T13:23:33;18.90;85.50
16402;DHT22;8310;44.626;11.176;2022-12-18T13:26:29;19.00;85.10
16402;DHT22;8310;44.626;11.176;2022-12-18T13:29:00;19.00;84.50
16402;DHT22;8310;44.626;11.176;2022-12-18T13:31:58;18.90;84.00
16402;DHT22;8310;44.626;11.176;2022-12-18T13:34:27;18.70;83.70
16402;DHT22;8310;44.626;11.176;2022-12-18T13:43:20;18.30;83.50
16402;DHT22;8310;44.626;11.176;2022-12-18T13:46:03;18.20;83.70
16402;DHT22;8310;44.626;11.176;2022-12-18T13:48:33;18.10;83.30
16402;DHT22;8310;44.626;11.176;2022-12-18T13:51:04;18.00;83.20
16402;DHT22;8310;44.626;11.176;2022-12-18T13:53:37;18.00;83.10
16402;DHT22;8310;44.626;11.176;2022-12-18T13:56:07;18.00;83.10
16402;DHT22;8310;44.626;11.176;2022-12-18T13:58:35;18.00;83.10
16402;DHT22;8310;44.626;11.176;2022-12-18T14:01:02;18.00;83.20
16402;DHT22;8310;44.626;11.176;2022-12-18T14:03:31;18.00;83.00
16402;DHT22;8310;44.626;11.176;2022-12-18T14:06:01;17.90;83.10
16402;DHT22;8310;44.626;11.176;2022-12-18T14:08:37;17.90;83.40
16402;DHT22;8310;44.626;11.176;2022-12-18T14:11:19;18.00;83.50
16402;DHT22;8310;44.626;11.176;2022-12-18T14:13:48;18.00;83.30
16402;DHT22;8310;44.626;11.176;2022-12-18T14:16:17;18.00;83.10
16402;DHT22;8310;44.626;11.176;2022-12-18T14:18:48;17.90;82.60
16402;DHT22;8310;44.626;11.176;2022-12-18T14:21:23;17.70;81.70
16402;DHT22;8310;44.626;11.176;2022-12-18T14:24:04;17.50;81.50
16402;DHT22;8310;44.626;11.176;2022-12-18T14:26:34;17.30;81.50
16402;DHT22;8310;44.626;11.176;2022-12-18T14:29:18;17.20;81.50
16402;DHT22;8310;44.626;11.176;2022-12-18T14:31:50;17.00;81.30
16402;DHT22;8310;44.626;11.176;2022-12-18T14:34:31;16.90;81.00
16402;DHT22;8310;44.626;11.176;2022-12-18T14:36:59;16.70;80.80
16402;DHT22;8310;44.626;11.176;2022-12-18T14:39:27;16.50;80.60
16402;DHT22;8310;44.626;11.176;2022-12-18T14:41:56;16.40;80.70
16402;DHT22;8310;44.626;11.176;2022-12-18T14:44:24;16.20;80.60
16402;DHT22;8310;44.626;11.176;2022-12-18T14:46:56;16.10;80.50
16402;DHT22;8310;44.626;11.176;2022-12-18T14:49:29;15.90;80.30
16402;DHT22;8310;44.626;11.176;2022-12-18T14:52:01;15.80;80.30
16402;DHT22;8310;44.626;11.176;2022-12-18T14:54:30;15.60;80.40
16402;DHT22;8310;44.626;11.176;2022-12-18T14:57:01;15.60;80.60
16402;DHT22;8310;44.626;11.176;2022-12-18T14:59:29;15.50;80.70
16402;DHT22;8310;44.626;11.176;2022-12-18T15:02:00;15.40;80.50
16402;DHT22;8310;44.626;11.176;2022-12-18T15:04:30;15.40;80.60
16402;DHT22;8310;44.626;11.176;2022-12-18T15:07:08;15.30;80.60
16402;DHT22;8310;44.626;11.176;2022-12-18T15:09:38;15.20;80.50
16402;DHT22;8310;44.626;11.176;2022-12-18T15:12:22;15.10;80.40
16402;DHT22;8310;44.626;11.176;2022-12-18T15:14:52;15.00;80.30
16402;DHT22;8310;44.626;11.176;2022-12-18T15:17:21;14.90;80.30
16402;DHT22;8310;44.626;11.176;2022-12-18T15:19:52;14.80;80.30
16402;DHT22;8310;44.626;11.176;2022-12-18T15:22:23;14.70;80.30
16402;DHT22;8310;44.626;11.176;2022-12-18T15:24:53;14.60;80.20
16402;DHT22;8310;44.626;11.176;2022-12-18T15:27:25;14.40;80.00
16402;DHT22;8310;44.626;11.176;2022-12-18T15:30:01;14.30;80.00
16402;DHT22;8310;44.626;11.176;2022-12-18T15:32:29;14.20;80.00
16402;DHT22;8310;44.626;11.176;2022-12-18T15:35:07;14.00;80.00
16402;DHT22;8310;44.626;11.176;2022-12-18T15:37:39;13.90;80.00
16402;DHT22;8310;44.626;11.176;2022-12-18T15:40:12;13.80;80.00
16402;DHT22;8310;44.626;11.176;2022-12-18T15:42:42;13.70;79.80
16402;DHT22;8310;44.626;11.176;2022-12-18T15:45:27;13.60;79.70
16402;DHT22;8310;44.626;11.176;2022-12-18T15:47:55;13.50;79.80
16402;DHT22;8310;44.626;11.176;2022-12-18T15:50:23;13.40;79.80
16402;DHT22;8310;44.626;11.176;2022-12-18T15:52:53;13.30;79.80
16402;DHT22;8310;44.626;11.176;2022-12-18T15:55:23;13.20;79.80
16402;DHT22;8310;44.626;11.176;2022-12-18T15:58:11;13.10;79.80
16402;DHT22;8310;44.626;11.176;2022-12-18T16:00:39;13.00;79.70
16402;DHT22;8310;44.626;11.176;2022-12-18T16:03:08;12.90;79.60
16402;DHT22;8310;44.626;11.176;2022-12-18T16:05:37;12.90;79.70
16402;DHT22;8310;44.626;11.176;2022-12-18T16:08:04;12.80;79.70
16402;DHT22;8310;44.626;11.176;2022-12-18T16:10:33;12.70;79.60
16402;DHT22;8310;44.626;11.176;2022-12-18T16:13:00;12.70;79.70
16402;DHT22;8310;44.626;11.176;2022-12-18T16:15:30;12.60;79.70